sensor_id;sensor_type;location;lat;lon;timestamp;pressure;altitude;pressure_sealevel;temperature;humidity
42603;BME280;28233;55.748;48.752;2023-07-13T00:01:58;98300.84;;;13.08;98.32
42603;BME280;28233;55.748;48.752;2023-07-13T00:04:01;98292.91;;;13.06;98.13
42603;BME280;28233;55.748;48.752;2023-07-13T00:06:04;98298.91;;;13.12;98.52
42603;BME280;28233;55.748;48.752;2023-07-13T00:08:07;98296.59;;;13.14;98.33
42603;BME280;28233;55.748;48.752;2023-07-13T00:10:10;98304.50;;;13.16;97.80
42603;BME280;28233;55.748;48.752;2023-07-13T00:12:28;98301.75;;;13.16;97.89
42603;BME280;28233;55.748;48.752;2023-07-13T00:14:31;98305.72;;;13.18;97.69
42603;BME280;28233;55.748;48.752;2023-07-13T00:16:36;98306.16;;;13.20;97.44
42603;BME280;28233;55.748;48.752;2023-07-13T00:18:40;98309.69;;;13.21;97.22
42603;BME280;28233;55.748;48.752;2023-07-13T00:20:43;98314.44;;;13.20;97.12
42603;BME280;28233;55.748;48.752;2023-07-13T00:22:46;98312.03;;;13.19;97.00
42603;BME280;28233;55.748;48.752;2023-07-13T00:24:49;98314.44;;;13.20;97.09
42603;BME280;28233;55.748;48.752;2023-07-13T00:26:51;98316.00;;;13.21;96.64
42603;BME280;28233;55.748;48.752;2023-07-13T00:28:54;98319.16;;;13.20;96.76
42603;BME280;28233;55.748;48.752;2023-07-13T00:30:57;98319.94;;;13.20;96.68
42603;BME280;28233;55.748;48.752;2023-07-13T00:33:00;98314.06;;;13.22;96.52
42603;BME280;28233;55.748;48.752;2023-07-13T00:35:18;98313.22;;;13.18;96.56
42603;BME280;28233;55.748;48.752;2023-07-13T00:37:21;98315.97;;;13.18;96.77
42603;BME280;28233;55.748;48.752;2023-07-13T00:39:24;98315.97;;;13.18;96.50
42603;BME280;28233;55.748;48.752;2023-07-13T00:41:27;98311.25;;;13.18;96.55
42603;BME280;28233;55.748;48.752;2023-07-13T00:43:31;98314.78;;;13.19;96.64
42603;BME280;28233;55.748;48.752;2023-07-13T00:47:46;98316.72;;;13.15;96.30
42603;BME280;28233;55.748;48.752;2023-07-13T00:49:49;98317.50;;;13.15;96.20
42603;BME280;28233;55.748;48.752;2023-07-13T00:52:02;98330.91;;;13.17;96.15
42603;BME280;28233;55.748;48.752;2023-07-13T00:54:11;98317.94;;;13.17;96.33
42603;BME280;28233;55.748;48.752;2023-07-13T00:56:15;98327.78;;;13.18;96.17
42603;BME280;28233;55.748;48.752;2023-07-13T00:58:18;98328.97;;;13.17;96.00
42603;BME280;28233;55.748;48.752;2023-07-13T01:00:21;98326.19;;;13.17;95.99
42603;BME280;28233;55.748;48.752;2023-07-13T01:02:27;98337.63;;;13.19;96.11
42603;BME280;28233;55.748;48.752;2023-07-13T01:04:31;98342.00;;;13.20;96.34
42603;BME280;28233;55.748;48.752;2023-07-13T01:06:37;98340.78;;;13.18;96.27
42603;BME280;28233;55.748;48.752;2023-07-13T01:08:40;98351.03;;;13.17;96.10
42603;BME280;28233;55.748;48.752;2023-07-13T01:10:57;98348.19;;;13.14;96.22
42603;BME280;28233;55.748;48.752;2023-07-13T01:13:00;98342.13;;;13.04;96.41
42603;BME280;28233;55.748;48.752;2023-07-13T01:15:04;98348.84;;;13.07;96.48
42603;BME280;28233;55.748;48.752;2023-07-13T01:17:09;98342.44;;;12.99;96.51
42603;BME280;28233;55.748;48.752;2023-07-13T01:19:41;98348.25;;;12.94;96.85
42603;BME280;28233;55.748;48.752;2023-07-13T01:21:50;98351.22;;;12.85;96.82
42603;BME280;28233;55.748;48.752;2023-07-13T01:23:53;98360.94;;;12.79;97.30
42603;BME280;28233;55.748;48.752;2023-07-13T01:25:57;98354.16;;;12.73;97.62
42603;BME280;28233;55.748;48.752;2023-07-13T01:28:03;98353.72;;;12.71;97.72
42603;BME280;28233;55.748;48.752;2023-07-13T01:30:06;98354.06;;;12.69;97.83
42603;BME280;28233;55.748;48.752;2023-07-13T01:32:12;98357.13;;;12.64;97.74
42603;BME280;28233;55.748;48.752;2023-07-13T01:34:15;98346.41;;;12.59;98.14
42603;BME280;28233;55.748;48.752;2023-07-13T01:36:18;98346.75;;;12.58;98.11
42603;BME280;28233;55.748;48.752;2023-07-13T01:38:24;98352.66;;;12.56;97.97
42603;BME280;28233;55.748;48.752;2023-07-13T01:40:28;98360.91;;;12.56;98.27
42603;BME280;28233;55.748;48.752;2023-07-13T01:42:31;98353.44;;;12.57;98.32
42603;BME280;28233;55.748;48.752;2023-07-13T01:44:34;98349.16;;;12.59;98.24
42603;BME280;28233;55.748;48.752;2023-07-13T01:46:36;98346.84;;;12.61;98.14
42603;BME280;28233;55.748;48.752;2023-07-13T01:48:40;98343.34;;;12.64;97.86
42603;BME280;28233;55.748;48.752;2023-07-13T01:50:43;98349.38;;;12.70;97.83
42603;BME280;28233;55.748;48.752;2023-07-13T01:52:46;98346.69;;;12.74;97.64
42603;BME280;28233;55.748;48.752;2023-07-13T01:54:49;98346.31;;;12.75;97.36
42603;BME280;28233;55.748;48.752;2023-07-13T01:56:52;98342.47;;;12.80;97.20
42603;BME280;28233;55.748;48.752;2023-07-13T01:58:55;98346.06;;;12.84;97.33
42603;BME280;28233;55.748;48.752;2023-07-13T02:00:57;98335.91;;;12.88;97.03
42603;BME280;28233;55.748;48.752;2023-07-13T02:03:00;98336.78;;;12.92;96.82
42603;BME280;28233;55.748;48.752;2023-07-13T02:05:04;98333.81;;;13.01;96.60
42603;BME280;28233;55.748;48.752;2023-07-13T02:07:08;98337.47;;;13.08;95.86
42603;BME280;28233;55.748;48.752;2023-07-13T02:09:11;98332.44;;;13.14;95.71
42603;BME280;28233;55.748;48.752;2023-07-13T02:11:14;98337.63;;;13.19;95.21
42603;BME280;28233;55.748;48.752;2023-07-13T02:13:17;98334.22;;;13.26;95.09
42603;BME280;28233;55.748;48.752;2023-07-13T02:15:20;98343.81;;;13.32;94.48
42603;BME280;28233;55.748;48.752;2023-07-13T02:17:23;98354.19;;;13.39;94.20
42603;BME280;28233;55.748;48.752;2023-07-13T02:19:26;98344.41;;;13.45;94.15
42603;BME280;28233;55.748;48.752;2023-07-13T02:21:29;98349.25;;;13.51;93.71
42603;BME280;28233;55.748;48.752;2023-07-13T02:23:32;98339.50;;;13.58;93.19
42603;BME280;28233;55.748;48.752;2023-07-13T02:25:35;98347.88;;;13.65;92.66
42603;BME280;28233;55.748;48.752;2023-07-13T02:27:37;98340.13;;;13.74;92.61
42603;BME280;28233;55.748;48.752;2023-07-13T02:29:40;98344.59;;;13.82;92.10
42603;BME280;28233;55.748;48.752;2023-07-13T02:31:43;98354.16;;;13.88;91.49
42603;BME280;28233;55.748;48.752;2023-07-13T02:33:46;98346.34;;;13.94;91.03
42603;BME280;28233;55.748;48.752;2023-07-13T02:35:49;98338.53;;;14.00;90.58
42603;BME280;28233;55.748;48.752;2023-07-13T02:37:52;98339.00;;;14.05;90.42
42603;BME280;28233;55.748;48.752;2023-07-13T02:39:54;98331.16;;;14.11;89.77
42603;BME280;28233;55.748;48.752;2023-07-13T02:41:57;98332.44;;;14.17;89.71
42603;BME280;28233;55.748;48.752;2023-07-13T02:44:00;98323.78;;;14.19;89.38
42603;BME280;28233;55.748;48.752;2023-07-13T02:46:07;98332.19;;;14.26;88.92
42603;BME280;28233;55.748;48.752;2023-07-13T02:48:13;98336.19;;;14.32;88.56
42603;BME280;28233;55.748;48.752;2023-07-13T02:50:16;98340.59;;;14.36;88.21
42603;BME280;28233;55.748;48.752;2023-07-13T02:52:19;98345.75;;;14.38;88.16
42603;BME280;28233;55.748;48.752;2023-07-13T02:54:22;98348.50;;;14.38;88.25
42603;BME280;28233;55.748;48.752;2023-07-13T02:56:26;98336.31;;;14.43;88.20
42603;BME280;28233;55.748;48.752;2023-07-13T02:58:29;98345.03;;;14.45;88.00
42603;BME280;28233;55.748;48.752;2023-07-13T03:00:32;98331.66;;;14.47;87.76
42603;BME280;28233;55.748;48.752;2023-07-13T03:02:35;98333.66;;;14.50;87.38
42603;BME280;28233;55.748;48.752;2023-07-13T03:04:38;98336.09;;;14.55;87.38
42603;BME280;28233;55.748;48.752;2023-07-13T03:06:43;98336.59;;;14.64;87.29
42603;BME280;28233;55.748;48.752;2023-07-13T03:08:46;98324.47;;;14.72;86.94
42603;BME280;28233;55.748;48.752;2023-07-13T03:10:49;98326.88;;;14.77;86.49
42603;BME280;28233;55.748;48.752;2023-07-13T03:12:51;98326.53;;;14.83;86.46
42603;BME280;28233;55.748;48.752;2023-07-13T03:14:54;98331.72;;;14.88;85.25
42603;BME280;28233;55.748;48.752;2023-07-13T03:16:57;98331.38;;;14.93;84.92
42603;BME280;28233;55.748;48.752;2023-07-13T03:19:00;98321.13;;;14.93;84.69
42603;BME280;28233;55.748;48.752;2023-07-13T03:21:04;98323.97;;;15.00;85.03
42603;BME280;28233;55.748;48.752;2023-07-13T03:23:07;98314.91;;;15.04;84.49
42603;BME280;28233;55.748;48.752;2023-07-13T03:25:10;98316.13;;;15.10;84.14
42603;BME280;28233;55.748;48.752;2023-07-13T03:27:13;98320.13;;;15.16;83.82
42603;BME280;28233;55.748;48.752;2023-07-13T03:29:16;98311.06;;;15.15;82.75
42603;BME280;28233;55.748;48.752;2023-07-13T03:31:21;98313.41;;;15.13;82.42
42603;BME280;28233;55.748;48.752;2023-07-13T03:33:24;98308.63;;;15.10;82.39
42603;BME280;28233;55.748;48.752;2023-07-13T03:35:27;98319.34;;;15.15;82.47
42603;BME280;28233;55.748;48.752;2023-07-13T03:37:29;98324.16;;;15.22;82.48
42603;BME280;28233;55.748;48.752;2023-07-13T03:39:32;98322.25;;;15.30;82.92
42603;BME280;28233;55.748;48.752;2023-07-13T03:41:35;98306.06;;;15.32;82.12
42603;BME280;28233;55.748;48.752;2023-07-13T03:43:38;98312.06;;;15.41;82.38
42603;BME280;28233;55.748;48.752;2023-07-13T03:45:40;98315.25;;;15.47;82.08
42603;BME280;28233;55.748;48.752;2023-07-13T03:47:43;98316.41;;;15.42;82.00
42603;BME280;28233;55.748;48.752;2023-07-13T03:49:46;98328.72;;;15.52;82.57
42603;BME280;28233;55.748;48.752;2023-07-13T03:51:49;98327.94;;;15.51;82.22
42603;BME280;28233;55.748;48.752;2023-07-13T03:53:55;98331.06;;;15.46;82.41
42603;BME280;28233;55.748;48.752;2023-07-13T03:55:58;98326.31;;;15.47;82.56
42603;BME280;28233;55.748;48.752;2023-07-13T03:58:34;98333.78;;;15.42;82.81
42603;BME280;28233;55.748;48.752;2023-07-13T04:00:37;98344.84;;;15.39;83.16
42603;BME280;28233;55.748;48.752;2023-07-13T04:02:40;98335.34;;;15.40;83.13
42603;BME280;28233;55.748;48.752;2023-07-13T04:04:43;98339.69;;;15.34;83.27
42603;BME280;28233;55.748;48.752;2023-07-13T04:06:46;98343.22;;;15.34;83.94
42603;BME280;28233;55.748;48.752;2023-07-13T04:08:51;98336.50;;;15.32;83.94
42603;BME280;28233;55.748;48.752;2023-07-13T04:10:55;98340.84;;;15.33;83.84
42603;BME280;28233;55.748;48.752;2023-07-13T04:12:57;98336.13;;;15.37;83.94
42603;BME280;28233;55.748;48.752;2023-07-13T04:15:00;98337.78;;;15.45;83.99
42603;BME280;28233;55.748;48.752;2023-07-13T04:17:05;98340.22;;;15.50;84.20
42603;BME280;28233;55.748;48.752;2023-07-13T04:19:09;98342.56;;;15.52;84.12
42603;BME280;28233;55.748;48.752;2023-07-13T04:21:13;98346.53;;;15.54;83.73
42603;BME280;28233;55.748;48.752;2023-07-13T04:23:16;98346.59;;;15.61;82.96
42603;BME280;28233;55.748;48.752;2023-07-13T04:25:20;98344.66;;;15.65;82.95
42603;BME280;28233;55.748;48.752;2023-07-13T04:27:24;98349.78;;;15.60;83.31
42603;BME280;28233;55.748;48.752;2023-07-13T04:29:27;98354.09;;;15.57;82.88
42603;BME280;28233;55.748;48.752;2023-07-13T04:31:30;98349.72;;;15.53;82.93
42603;BME280;28233;55.748;48.752;2023-07-13T04:33:33;98357.56;;;15.47;82.70
42603;BME280;28233;55.748;48.752;2023-07-13T04:35:36;98358.75;;;15.50;82.14
42603;BME280;28233;55.748;48.752;2023-07-13T04:37:40;98362.78;;;15.56;82.17
42603;BME280;28233;55.748;48.752;2023-07-13T04:39:43;98368.72;;;15.58;83.25
42603;BME280;28233;55.748;48.752;2023-07-13T04:41:45;98365.66;;;15.67;83.77
42603;BME280;28233;55.748;48.752;2023-07-13T04:43:48;98366.06;;;15.69;82.77
42603;BME280;28233;55.748;48.752;2023-07-13T04:45:52;98371.31;;;15.81;82.48
42603;BME280;28233;55.748;48.752;2023-07-13T04:47:55;98373.34;;;15.91;82.36
42603;BME280;28233;55.748;48.752;2023-07-13T04:49:58;98366.69;;;15.99;81.87
42603;BME280;28233;55.748;48.752;2023-07-13T04:52:00;98368.28;;;16.00;81.16
42603;BME280;28233;55.748;48.752;2023-07-13T04:54:03;98371.47;;;16.02;80.83
42603;BME280;28233;55.748;48.752;2023-07-13T04:56:07;98376.22;;;16.05;80.56
42603;BME280;28233;55.748;48.752;2023-07-13T04:58:10;98369.91;;;16.09;81.07
42603;BME280;28233;55.748;48.752;2023-07-13T05:00:14;98377.88;;;16.14;81.60
42603;BME280;28233;55.748;48.752;2023-07-13T05:02:18;98370.00;;;16.23;81.21
42603;BME280;28233;55.748;48.752;2023-07-13T05:04:23;98372.00;;;16.30;80.85
42603;BME280;28233;55.748;48.752;2023-07-13T05:06:25;98372.06;;;16.37;78.81
42603;BME280;28233;55.748;48.752;2023-07-13T05:08:28;98370.09;;;16.44;76.89
42603;BME280;28233;55.748;48.752;2023-07-13T05:10:31;98372.91;;;16.55;76.17
42603;BME280;28233;55.748;48.752;2023-07-13T05:12:34;98373.75;;;16.66;75.57
42603;BME280;28233;55.748;48.752;2023-07-13T05:14:37;98377.00;;;16.79;75.68
42603;BME280;28233;55.748;48.752;2023-07-13T05:16:40;98373.06;;;16.87;74.35
42603;BME280;28233;55.748;48.752;2023-07-13T05:18:43;98367.56;;;16.98;73.15
42603;BME280;28233;55.748;48.752;2023-07-13T05:20:45;98370.34;;;17.09;73.45
42603;BME280;28233;55.748;48.752;2023-07-13T05:22:48;98356.09;;;17.25;72.76
42603;BME280;28233;55.748;48.752;2023-07-13T05:24:51;98366.03;;;17.44;72.86
42603;BME280;28233;55.748;48.752;2023-07-13T05:26:54;98369.59;;;17.62;72.95
42603;BME280;28233;55.748;48.752;2023-07-13T05:28:56;98369.97;;;17.75;71.97
42603;BME280;28233;55.748;48.752;2023-07-13T05:30:59;98377.16;;;17.87;71.09
42603;BME280;28233;55.748;48.752;2023-07-13T05:33:02;98366.44;;;17.92;70.79
42603;BME280;28233;55.748;48.752;2023-07-13T05:35:06;98369.63;;;17.94;69.20
42603;BME280;28233;55.748;48.752;2023-07-13T05:37:09;98368.00;;;18.04;68.69
42603;BME280;28233;55.748;48.752;2023-07-13T05:39:12;98366.81;;;18.09;67.19
42603;BME280;28233;55.748;48.752;2023-07-13T05:41:15;98371.56;;;18.15;65.69
42603;BME280;28233;55.748;48.752;2023-07-13T05:43:21;98365.97;;;18.19;65.84
42603;BME280;28233;55.748;48.752;2023-07-13T05:45:24;98367.19;;;18.18;66.21
42603;BME280;28233;55.748;48.752;2023-07-13T05:47:26;98364.41;;;18.14;62.49
42603;BME280;28233;55.748;48.752;2023-07-13T05:49:30;98367.59;;;18.09;62.91
42603;BME280;28233;55.748;48.752;2023-07-13T05:51:33;98362.84;;;18.03;62.73
42603;BME280;28233;55.748;48.752;2023-07-13T05:53:35;98366.41;;;17.96;60.48
42603;BME280;28233;55.748;48.752;2023-07-13T05:55:46;98359.28;;;18.02;61.17
42603;BME280;28233;55.748;48.752;2023-07-13T05:57:56;98363.22;;;18.15;59.15
42603;BME280;28233;55.748;48.752;2023-07-13T06:00:00;98372.72;;;18.22;57.44
42603;BME280;28233;55.748;48.752;2023-07-13T06:02:07;98368.34;;;18.28;56.37
42603;BME280;28233;55.748;48.752;2023-07-13T06:04:10;98366.34;;;18.39;56.14
42603;BME280;28233;55.748;48.752;2023-07-13T06:06:16;98367.84;;;18.54;56.27
42603;BME280;28233;55.748;48.752;2023-07-13T06:08:19;98356.66;;;18.72;55.54
42603;BME280;28233;55.748;48.752;2023-07-13T06:10:22;98361.38;;;18.90;55.25
42603;BME280;28233;55.748;48.752;2023-07-13T06:12:25;98365.66;;;19.05;52.59
42603;BME280;28233;55.748;48.752;2023-07-13T06:14:28;98360.44;;;19.14;53.53
42603;BME280;28233;55.748;48.752;2023-07-13T06:16:31;98364.75;;;19.26;52.80
42603;BME280;28233;55.748;48.752;2023-07-13T06:18:34;98369.44;;;19.36;52.45
42603;BME280;28233;55.748;48.752;2023-07-13T06:20:37;98360.75;;;19.27;50.43
42603;BME280;28233;55.748;48.752;2023-07-13T06:22:40;98361.53;;;19.28;51.28
42603;BME280;28233;55.748;48.752;2023-07-13T06:24:43;98364.69;;;19.33;51.17
42603;BME280;28233;55.748;48.752;2023-07-13T06:26:46;98365.88;;;19.32;51.34
42603;BME280;28233;55.748;48.752;2023-07-13T06:28:48;98371.44;;;19.32;51.07
42603;BME280;28233;55.748;48.752;2023-07-13T06:30:51;98353.50;;;19.37;52.17
42603;BME280;28233;55.748;48.752;2023-07-13T06:32:54;98355.44;;;19.43;51.94
42603;BME280;28233;55.748;48.752;2023-07-13T06:34:57;98366.97;;;19.46;52.14
42603;BME280;28233;55.748;48.752;2023-07-13T06:37:00;98360.63;;;19.41;52.24
42603;BME280;28233;55.748;48.752;2023-07-13T06:39:03;98357.78;;;19.49;52.71
42603;BME280;28233;55.748;48.752;2023-07-13T06:41:13;98352.59;;;19.51;53.43
42603;BME280;28233;55.748;48.752;2023-07-13T06:43:16;98340.69;;;19.47;53.72
42603;BME280;28233;55.748;48.752;2023-07-13T06:45:19;98350.75;;;19.33;53.89
42603;BME280;28233;55.748;48.752;2023-07-13T06:47:22;98358.00;;;19.20;53.83
42603;BME280;28233;55.748;48.752;2023-07-13T06:49:25;98358.50;;;19.04;54.09
42603;BME280;28233;55.748;48.752;2023-07-13T06:51:28;98351.38;;;18.99;54.28
42603;BME280;28233;55.748;48.752;2023-07-13T06:53:31;98352.19;;;18.93;54.86
42603;BME280;28233;55.748;48.752;2023-07-13T06:55:33;98357.00;;;18.89;55.43
42603;BME280;28233;55.748;48.752;2023-07-13T06:57:36;98361.75;;;18.92;55.66
42603;BME280;28233;55.748;48.752;2023-07-13T06:59:39;98356.50;;;19.08;54.46
42603;BME280;28233;55.748;48.752;2023-07-13T07:01:42;98355.56;;;19.29;55.48
42603;BME280;28233;55.748;48.752;2023-07-13T07:03:45;98346.63;;;19.52;53.59
42603;BME280;28233;55.748;48.752;2023-07-13T07:05:48;98350.06;;;19.71;51.79
42603;BME280;28233;55.748;48.752;2023-07-13T07:07:52;98345.13;;;19.89;51.18
42603;BME280;28233;55.748;48.752;2023-07-13T07:09:54;98353.00;;;19.98;50.21
42603;BME280;28233;55.748;48.752;2023-07-13T07:11:57;98348.69;;;19.93;50.16
42603;BME280;28233;55.748;48.752;2023-07-13T07:14:07;98350.38;;;19.83;48.45
42603;BME280;28233;55.748;48.752;2023-07-13T07:16:10;98347.91;;;19.89;48.80
42603;BME280;28233;55.748;48.752;2023-07-13T07:18:13;98349.81;;;19.99;47.38
42603;BME280;28233;55.748;48.752;2023-07-13T07:20:16;98355.41;;;19.96;46.29
42603;BME280;28233;55.748;48.752;2023-07-13T07:22:19;98355.19;;;19.79;46.51
42603;BME280;28233;55.748;48.752;2023-07-13T07:24:22;98348.09;;;19.68;46.41
42603;BME280;28233;55.748;48.752;2023-07-13T07:26:25;98346.59;;;19.56;47.20
42603;BME280;28233;55.748;48.752;2023-07-13T07:28:32;98348.22;;;19.53;46.96
42603;BME280;28233;55.748;48.752;2023-07-13T07:30:42;98347.75;;;19.62;47.23
42603;BME280;28233;55.748;48.752;2023-07-13T07:32:48;98354.31;;;19.86;48.28
42603;BME280;28233;55.748;48.752;2023-07-13T07:34:54;98359.00;;;19.96;46.23
42603;BME280;28233;55.748;48.752;2023-07-13T07:37:00;98355.25;;;20.14;46.69
42603;BME280;28233;55.748;48.752;2023-07-13T07:39:07;98346.25;;;20.37;44.64
42603;BME280;28233;55.748;48.752;2023-07-13T07:41:12;98350.22;;;20.36;43.83
42603;BME280;28233;55.748;48.752;2023-07-13T07:43:17;98354.94;;;20.42;44.85
42603;BME280;28233;55.748;48.752;2023-07-13T07:45:20;98344.19;;;20.41;44.97
42603;BME280;28233;55.748;48.752;2023-07-13T07:47:23;98348.75;;;20.24;45.32
42603;BME280;28233;55.748;48.752;2023-07-13T07:49:26;98349.53;;;20.24;45.43
42603;BME280;28233;55.748;48.752;2023-07-13T07:51:29;98348.28;;;20.29;45.47
42603;BME280;28233;55.748;48.752;2023-07-13T07:53:32;98352.25;;;20.32;45.01
42603;BME280;28233;55.748;48.752;2023-07-13T07:55:35;98346.31;;;20.30;45.66
42603;BME280;28233;55.748;48.752;2023-07-13T07:57:41;98344.41;;;20.19;46.32
42603;BME280;28233;55.748;48.752;2023-07-13T07:59:47;98345.75;;;20.08;45.51
42603;BME280;28233;55.748;48.752;2023-07-13T08:01:53;98335.38;;;20.08;45.84
42603;BME280;28233;55.748;48.752;2023-07-13T08:03:59;98339.19;;;20.25;45.03
42603;BME280;28233;55.748;48.752;2023-07-13T08:06:04;98341.72;;;20.46;43.93
42603;BME280;28233;55.748;48.752;2023-07-13T08:08:10;98336.22;;;20.74;43.75
42603;BME280;28233;55.748;48.752;2023-07-13T08:10:13;98335.25;;;20.87;42.88
42603;BME280;28233;55.748;48.752;2023-07-13T08:12:16;98351.59;;;21.16;42.21
42603;BME280;28233;55.748;48.752;2023-07-13T08:14:38;98346.25;;;21.25;41.78
42603;BME280;28233;55.748;48.752;2023-07-13T08:16:54;98332.75;;;21.24;42.00
42603;BME280;28233;55.748;48.752;2023-07-13T08:18:57;98350.69;;;21.23;41.97
42603;BME280;28233;55.748;48.752;2023-07-13T08:21:04;98338.06;;;21.15;42.46
42603;BME280;28233;55.748;48.752;2023-07-13T08:23:09;98348.88;;;21.13;42.19
42603;BME280;28233;55.748;48.752;2023-07-13T08:25:12;98337.00;;;21.05;41.50
42603;BME280;28233;55.748;48.752;2023-07-13T08:27:15;98340.69;;;20.98;41.48
42603;BME280;28233;55.748;48.752;2023-07-13T08:29:18;98349.72;;;21.09;41.00
42603;BME280;28233;55.748;48.752;2023-07-13T08:31:21;98351.44;;;21.27;41.36
42603;BME280;28233;55.748;48.752;2023-07-13T08:33:23;98340.47;;;21.40;41.41
42603;BME280;28233;55.748;48.752;2023-07-13T08:35:26;98350.75;;;21.46;40.51
42603;BME280;28233;55.748;48.752;2023-07-13T08:37:29;98345.16;;;21.46;40.25
42603;BME280;28233;55.748;48.752;2023-07-13T08:39:33;98336.50;;;21.64;39.90
42603;BME280;28233;55.748;48.752;2023-07-13T08:41:37;98339.91;;;21.76;40.87
42603;BME280;28233;55.748;48.752;2023-07-13T08:43:42;98342.00;;;21.91;39.71
42603;BME280;28233;55.748;48.752;2023-07-13T08:45:59;98341.88;;;21.99;38.30
42603;BME280;28233;55.748;48.752;2023-07-13T08:48:14;98348.63;;;22.01;37.80
42603;BME280;28233;55.748;48.752;2023-07-13T08:50:25;98347.19;;;22.13;38.23
42603;BME280;28233;55.748;48.752;2023-07-13T08:52:42;98339.75;;;22.30;38.02
42603;BME280;28233;55.748;48.752;2023-07-13T08:54:49;98332.97;;;22.47;37.64
42603;BME280;28233;55.748;48.752;2023-07-13T08:56:55;98331.91;;;22.61;37.82
42603;BME280;28233;55.748;48.752;2023-07-13T08:59:14;98331.97;;;22.57;38.18
42603;BME280;28233;55.748;48.752;2023-07-13T09:03:52;98328.81;;;22.75;38.78
42603;BME280;28233;55.748;48.752;2023-07-13T09:06:00;98332.28;;;22.63;39.39
42603;BME280;28233;55.748;48.752;2023-07-13T09:10:32;98337.22;;;22.55;38.42
42603;BME280;28233;55.748;48.752;2023-07-13T09:14:59;98338.28;;;22.62;37.69
42603;BME280;28233;55.748;48.752;2023-07-13T09:17:24;98336.41;;;22.75;36.95
42603;BME280;28233;55.748;48.752;2023-07-13T09:19:30;98339.16;;;22.95;37.06
42603;BME280;28233;55.748;48.752;2023-07-13T09:21:38;98343.22;;;22.94;36.87
42603;BME280;28233;55.748;48.752;2023-07-13T09:23:44;98331.44;;;23.03;36.89
42603;BME280;28233;55.748;48.752;2023-07-13T09:25:49;98331.38;;;23.23;37.89
42603;BME280;28233;55.748;48.752;2023-07-13T09:28:11;98325.25;;;23.44;38.59
42603;BME280;28233;55.748;48.752;2023-07-13T09:30:25;98332.88;;;23.60;37.52
42603;BME280;28233;55.748;48.752;2023-07-13T09:32:30;98334.19;;;23.55;35.99
42603;BME280;28233;55.748;48.752;2023-07-13T09:34:34;98336.38;;;23.48;35.71
42603;BME280;28233;55.748;48.752;2023-07-13T09:36:37;98327.81;;;23.38;35.96
42603;BME280;28233;55.748;48.752;2023-07-13T09:38:40;98336.97;;;23.23;35.98
42603;BME280;28233;55.748;48.752;2023-07-13T09:42:58;98335.91;;;23.00;35.56
42603;BME280;28233;55.748;48.752;2023-07-13T09:45:02;98338.28;;;22.82;35.67
42603;BME280;28233;55.748;48.752;2023-07-13T09:47:39;98338.63;;;22.84;35.76
42603;BME280;28233;55.748;48.752;2023-07-13T09:49:43;98339.06;;;22.82;35.40
42603;BME280;28233;55.748;48.752;2023-07-13T09:52:02;98329.06;;;22.81;35.47
42603;BME280;28233;55.748;48.752;2023-07-13T09:54:05;98341.44;;;22.84;36.29
42603;BME280;28233;55.748;48.752;2023-07-13T09:56:19;98327.75;;;22.86;35.64
42603;BME280;28233;55.748;48.752;2023-07-13T09:58:26;98334.59;;;22.85;35.35
42603;BME280;28233;55.748;48.752;2023-07-13T10:00:32;98340.75;;;22.96;36.07
42603;BME280;28233;55.748;48.752;2023-07-13T10:02:35;98330.59;;;23.22;36.01
42603;BME280;28233;55.748;48.752;2023-07-13T10:04:39;98327.69;;;23.58;35.31
42603;BME280;28233;55.748;48.752;2023-07-13T10:06:44;98326.31;;;23.83;34.94
42603;BME280;28233;55.748;48.752;2023-07-13T10:08:49;98326.09;;;24.07;35.24
42603;BME280;28233;55.748;48.752;2023-07-13T10:10:54;98330.19;;;24.18;35.04
42603;BME280;28233;55.748;48.752;2023-07-13T10:13:00;98325.38;;;24.32;34.42
42603;BME280;28233;55.748;48.752;2023-07-13T10:15:03;98325.53;;;24.41;34.52
42603;BME280;28233;55.748;48.752;2023-07-13T10:17:32;98331.91;;;24.58;34.39
42603;BME280;28233;55.748;48.752;2023-07-13T10:19:35;98328.34;;;24.41;33.90
42603;BME280;28233;55.748;48.752;2023-07-13T10:21:46;98325.59;;;24.24;34.29
42603;BME280;28233;55.748;48.752;2023-07-13T10:23:55;98321.91;;;24.27;35.28
42603;BME280;28233;55.748;48.752;2023-07-13T10:26:00;98322.06;;;24.37;34.94
42603;BME280;28233;55.748;48.752;2023-07-13T10:30:33;98326.19;;;24.32;34.80
42603;BME280;28233;55.748;48.752;2023-07-13T10:32:38;98328.56;;;24.04;35.10
42603;BME280;28233;55.748;48.752;2023-07-13T10:34:43;98320.53;;;23.90;34.46
42603;BME280;28233;55.748;48.752;2023-07-13T10:36:48;98318.41;;;23.94;34.32
42603;BME280;28233;55.748;48.752;2023-07-13T10:38:52;98310.50;;;23.73;32.81
42603;BME280;28233;55.748;48.752;2023-07-13T10:41:05;98314.31;;;23.50;32.05
42603;BME280;28233;55.748;48.752;2023-07-13T10:43:39;98310.63;;;23.53;32.38
42603;BME280;28233;55.748;48.752;2023-07-13T10:45:45;98312.72;;;23.65;32.13
42603;BME280;28233;55.748;48.752;2023-07-13T10:47:52;98305.19;;;23.78;32.69
42603;BME280;28233;55.748;48.752;2023-07-13T10:49:59;98304.97;;;24.02;32.74
42603;BME280;28233;55.748;48.752;2023-07-13T10:52:06;98307.97;;;24.24;30.96
42603;BME280;28233;55.748;48.752;2023-07-13T10:54:31;98318.13;;;24.34;28.83
42603;BME280;28233;55.748;48.752;2023-07-13T10:56:34;98300.72;;;24.39;29.10
42603;BME280;28233;55.748;48.752;2023-07-13T10:58:42;98297.03;;;24.42;30.01
42603;BME280;28233;55.748;48.752;2023-07-13T11:03:19;98302.16;;;24.73;29.44
42603;BME280;28233;55.748;48.752;2023-07-13T11:05:32;98297.69;;;24.88;29.10
42603;BME280;28233;55.748;48.752;2023-07-13T11:07:53;98291.72;;;24.99;28.05
42603;BME280;28233;55.748;48.752;2023-07-13T11:09:59;98295.44;;;25.09;28.60
42603;BME280;28233;55.748;48.752;2023-07-13T11:12:27;98295.34;;;25.13;27.92